createdAt,value
2023-01-11T00:00:56.828Z,7.07
2023-01-11T00:03:59.514Z,5.90
2023-01-11T00:07:02.936Z,4.93
2023-01-11T00:10:06.003Z,5.97
2023-01-11T00:13:08.367Z,4.75
2023-01-11T00:16:11.663Z,5.20
2023-01-11T00:19:14.307Z,3.95
2023-01-11T00:22:16.942Z,5.95
2023-01-11T00:25:19.695Z,3.85
2023-01-11T00:28:22.178Z,4.57
2023-01-11T00:31:24.633Z,5.65
2023-01-11T00:34:27.132Z,4.47
2023-01-11T00:37:29.540Z,5.53
2023-01-11T00:40:31.992Z,4.60
2023-01-11T00:43:52.725Z,4.03
2023-01-11T00:47:14.188Z,4.80
2023-01-11T00:50:16.863Z,4.63
2023-01-11T00:53:19.920Z,4.77
2023-01-11T00:56:22.304Z,4.22
2023-01-11T00:59:24.713Z,5.15
2023-01-11T01:02:27.236Z,4.37
2023-01-11T01:05:29.874Z,4.40
2023-01-11T01:08:32.507Z,4.38
2023-01-11T01:11:34.992Z,4.65
2023-01-11T01:14:37.417Z,4.10
2023-01-11T01:17:39.943Z,3.77
2023-01-11T01:20:42.294Z,3.63
2023-01-11T01:23:44.852Z,4.07
2023-01-11T01:26:47.287Z,4.88
2023-01-11T01:29:49.763Z,4.00
2023-01-11T01:32:52.082Z,4.85
2023-01-11T01:35:54.506Z,3.40
2023-01-11T01:38:58.793Z,3.58
2023-01-11T01:42:01.225Z,4.43
2023-01-11T01:45:27.617Z,3.72
2023-01-11T01:48:30.253Z,5.38
2023-01-11T01:51:38.548Z,3.33
2023-01-11T01:54:47.105Z,4.63
2023-01-11T01:57:50.596Z,5.80
2023-01-11T02:00:53.459Z,5.32
2023-01-11T02:03:56.620Z,5.82
2023-01-11T02:07:00.884Z,3.88
2023-01-11T02:10:07.931Z,3.07
2023-01-11T02:13:12.309Z,5.32
2023-01-11T02:16:14.746Z,3.85
2023-01-11T02:19:36.047Z,4.78
2023-01-11T02:23:06.061Z,3.90
2023-01-11T02:26:20.077Z,4.47
2023-01-11T02:29:43.248Z,4.20
2023-01-11T02:33:12.842Z,6.88
2023-01-11T02:36:33.291Z,8.87
2023-01-11T02:40:06.830Z,9.25
2023-01-11T02:43:43.025Z,6.45
2023-01-11T02:46:56.995Z,6.73
2023-01-11T02:50:12.595Z,5.68
2023-01-11T02:54:05.752Z,6.25
2023-01-11T02:57:10.178Z,6.85
2023-01-11T03:00:15.098Z,7.37
2023-01-11T03:03:24.875Z,8.70
2023-01-11T03:06:31.884Z,8.77
2023-01-11T03:10:06.076Z,9.90
2023-01-11T03:13:14.429Z,8.60
2023-01-11T03:16:25.964Z,7.40
2023-01-11T03:19:43.436Z,6.57
2023-01-11T03:23:11.123Z,8.80
2023-01-11T03:26:24.966Z,8.47
2023-01-11T03:29:56.282Z,7.75
2023-01-11T03:33:09.112Z,9.77
2023-01-11T03:36:23.919Z,9.93
2023-01-11T03:39:37.655Z,7.97
2023-01-11T03:43:04.434Z,8.57
2023-01-11T03:46:12.629Z,9.35
2023-01-11T03:49:22.987Z,7.63
2023-01-11T03:52:31.303Z,7.60
2023-01-11T03:55:39.903Z,7.85
2023-01-11T03:58:42.708Z,9.43
2023-01-11T04:01:45.551Z,7.60
2023-01-11T04:04:48.207Z,9.10
2023-01-11T04:07:50.669Z,8.82
2023-01-11T04:10:53.648Z,8.83
2023-01-11T04:13:56.142Z,9.40
2023-01-11T04:16:58.557Z,8.18
2023-01-11T04:20:00.925Z,8.63
2023-01-11T04:23:05.028Z,7.87
2023-01-11T04:26:07.817Z,7.10
2023-01-11T04:29:10.831Z,9.50
2023-01-11T04:32:13.235Z,9.82
2023-01-11T04:35:16.000Z,8.27
2023-01-11T04:38:25.042Z,7.55
2023-01-11T04:41:46.155Z,9.02
2023-01-11T04:44:49.740Z,8.05
2023-01-11T04:47:56.586Z,9.57
2023-01-11T04:50:59.669Z,8.77
2023-01-11T04:54:02.024Z,9.45
2023-01-11T04:57:04.472Z,8.67
2023-01-11T05:00:10.804Z,7.38
2023-01-11T05:03:13.226Z,7.15
2023-01-11T05:06:15.951Z,6.78
2023-01-11T05:09:18.679Z,6.90
2023-01-11T05:12:21.145Z,10.13
2023-01-11T05:15:23.628Z,7.90
2023-01-11T05:18:26.082Z,7.43
2023-01-11T05:21:34.911Z,7.30
2023-01-11T05:24:37.350Z,7.10
2023-01-11T05:27:39.872Z,10.50
2023-01-11T05:30:42.666Z,11.73
2023-01-11T05:33:45.998Z,8.27
2023-01-11T05:36:48.688Z,9.50
2023-01-11T05:39:51.431Z,9.85
2023-01-11T05:42:53.800Z,9.37
2023-01-11T05:45:57.916Z,8.60
2023-01-11T05:49:00.801Z,7.78
2023-01-11T05:52:03.351Z,10.50
2023-01-11T05:55:06.378Z,10.57
2023-01-11T05:58:08.866Z,10.80
2023-01-11T06:01:12.662Z,9.85
2023-01-11T06:04:15.176Z,12.32
2023-01-11T06:07:18.191Z,11.83
2023-01-11T06:10:20.667Z,11.70
2023-01-11T06:13:27.436Z,12.98
2023-01-11T06:16:30.497Z,10.75
2023-01-11T06:19:33.278Z,12.57
2023-01-11T06:22:35.980Z,9.55
2023-01-11T06:25:38.458Z,11.15
2023-01-11T06:28:41.364Z,12.05
2023-01-11T06:31:44.412Z,12.85
2023-01-11T06:34:46.847Z,10.45
2023-01-11T06:37:49.248Z,12.25
2023-01-11T06:40:57.859Z,12.17
2023-01-11T06:44:00.504Z,17.65
2023-01-11T06:47:03.323Z,19.92
2023-01-11T06:50:06.902Z,21.95
2023-01-11T06:53:09.999Z,20.80
2023-01-11T06:56:15.774Z,19.27
2023-01-11T06:59:18.609Z,16.50
2023-01-11T07:02:21.732Z,19.93
2023-01-11T07:05:24.888Z,17.60
2023-01-11T07:08:28.914Z,17.30
2023-01-11T07:11:35.363Z,13.05
2023-01-11T07:14:39.914Z,15.53
2023-01-11T07:17:43.768Z,11.60
2023-01-11T07:20:47.582Z,13.73
2023-01-11T07:23:52.268Z,11.45
2023-01-11T07:26:56.460Z,10.20
2023-01-11T07:30:00.375Z,14.52
2023-01-11T07:33:07.809Z,11.93
2023-01-11T07:36:13.432Z,10.43
2023-01-11T07:39:16.939Z,12.85
2023-01-11T07:42:40.433Z,17.52
2023-01-11T07:45:46.918Z,14.93
2023-01-11T07:48:49.861Z,12.70
2023-01-11T07:51:52.689Z,15.05
2023-01-11T07:54:55.162Z,11.48
2023-01-11T07:57:57.768Z,10.52
2023-01-11T08:01:00.413Z,12.90
2023-01-11T08:04:04.182Z,11.80
2023-01-11T08:07:07.054Z,11.68
2023-01-11T08:10:11.028Z,11.73
2023-01-11T08:13:32.643Z,8.67
2023-01-11T08:16:35.238Z,8.98
2023-01-11T08:19:38.210Z,12.32
2023-01-11T08:22:40.791Z,10.07
2023-01-11T08:25:43.315Z,10.83
2023-01-11T08:28:46.890Z,10.40
2023-01-11T08:31:49.799Z,9.38
2023-01-11T08:34:52.275Z,11.10
2023-01-11T08:37:54.802Z,11.57
2023-01-11T08:40:57.239Z,13.43
2023-01-11T08:44:00.173Z,15.02
2023-01-11T08:47:03.996Z,13.57
2023-01-11T08:50:08.295Z,13.63
2023-01-11T08:53:12.936Z,17.23
2023-01-11T08:56:15.436Z,16.65
2023-01-11T08:59:20.076Z,16.20
2023-01-11T09:02:22.853Z,23.73
2023-01-11T09:05:25.389Z,18.73
2023-01-11T09:08:28.693Z,15.20
2023-01-11T09:11:50.627Z,11.63
2023-01-11T09:14:53.096Z,12.13
2023-01-11T09:17:55.740Z,13.70
2023-01-11T09:20:58.306Z,13.45
2023-01-11T09:24:00.832Z,12.93
2023-01-11T09:27:04.886Z,13.00
2023-01-11T09:30:08.487Z,14.30
2023-01-11T09:33:10.998Z,16.45
2023-01-11T09:36:15.116Z,19.25
2023-01-11T09:39:20.665Z,17.23
2023-01-11T09:43:00.872Z,14.13
2023-01-11T09:46:08.661Z,9.70
2023-01-11T09:49:20.345Z,9.88
2023-01-11T09:52:30.148Z,8.13
2023-01-11T09:55:35.015Z,8.40
2023-01-11T09:58:50.746Z,7.22
2023-01-11T10:02:11.662Z,8.32
2023-01-11T10:05:23.923Z,7.63
2023-01-11T10:18:38.837Z,5.95
2023-01-11T10:19:48.146Z,8.13
2023-01-11T10:22:55.847Z,12.50
2023-01-11T10:26:07.241Z,11.80
2023-01-11T10:29:44.656Z,11.10
2023-01-11T10:33:08.465Z,13.05
2023-01-11T10:36:31.175Z,8.90
2023-01-11T10:40:07.830Z,9.13
2023-01-11T10:43:24.465Z,9.40
2023-01-11T10:46:27.542Z,8.27
2023-01-11T10:49:45.505Z,10.60
2023-01-11T10:52:55.174Z,8.18
2023-01-11T10:56:04.992Z,7.95
2023-01-11T10:59:22.874Z,8.27
2023-01-11T11:02:46.598Z,7.27
2023-01-11T11:06:01.075Z,8.10
2023-01-11T11:09:22.841Z,8.75
2023-01-11T11:12:36.604Z,4.88
2023-01-11T11:15:39.066Z,5.00
2023-01-11T11:18:43.408Z,8.37
2023-01-11T11:21:47.604Z,9.60
2023-01-11T11:25:00.199Z,4.35
2023-01-11T11:28:14.962Z,5.22
2023-01-11T11:31:17.570Z,12.37
2023-01-11T11:34:21.980Z,6.77
2023-01-11T11:37:36.142Z,4.82
2023-01-11T11:40:39.033Z,5.78
2023-01-11T11:43:43.873Z,2.90
2023-01-11T11:47:15.805Z,2.40
2023-01-11T11:50:42.018Z,9.90
2023-01-11T11:53:55.618Z,5.32
2023-01-11T11:57:12.332Z,4.32
2023-01-11T12:00:26.943Z,4.18
2023-01-11T12:03:32.316Z,2.30
2023-01-11T12:06:34.886Z,3.73
2023-01-11T12:09:42.253Z,3.45
2023-01-11T12:12:58.455Z,6.65
2023-01-11T12:16:04.366Z,4.03
2023-01-11T12:19:43.524Z,3.50
2023-01-11T12:22:45.942Z,6.33
2023-01-11T12:26:00.527Z,6.50
2023-01-11T12:29:12.628Z,3.95
2023-01-11T12:32:45.103Z,6.63
2023-01-11T12:35:53.387Z,4.13
2023-01-11T12:39:32.851Z,4.83
2023-01-11T12:42:50.123Z,2.38
2023-01-11T12:46:05.029Z,3.13
2023-01-11T12:49:19.594Z,11.48
2023-01-11T12:52:44.090Z,3.77
2023-01-11T12:56:05.461Z,3.23
2023-01-11T12:59:48.812Z,5.05
2023-01-11T13:03:13.346Z,4.10
2023-01-11T13:06:29.786Z,2.80
2023-01-11T13:09:46.027Z,2.60
2023-01-11T13:13:05.961Z,9.07
2023-01-11T13:16:21.907Z,4.10
2023-01-11T13:19:45.136Z,3.78
2023-01-11T13:22:52.638Z,2.88
2023-01-11T13:25:57.324Z,5.77
2023-01-11T13:29:03.730Z,7.20
2023-01-11T13:32:15.228Z,4.13
2023-01-11T13:35:24.657Z,6.95
2023-01-11T13:38:45.227Z,4.78
2023-01-11T13:41:55.784Z,5.00
2023-01-11T13:45:23.821Z,5.43
2023-01-11T13:48:44.707Z,4.97
2023-01-11T13:52:00.150Z,9.18
2023-01-11T13:55:26.974Z,8.07
2023-01-11T13:58:42.407Z,5.27
2023-01-11T14:01:56.979Z,8.07
2023-01-11T14:05:15.665Z,5.50
2023-01-11T14:08:35.300Z,3.03
2023-01-11T14:11:58.469Z,3.08
2023-01-11T14:15:11.245Z,8.73
2023-01-11T14:18:25.539Z,4.53
2023-01-11T14:21:54.763Z,4.15
2023-01-11T14:25:07.506Z,4.70
2023-01-11T14:28:10.008Z,8.23
2023-01-11T14:31:52.979Z,6.47
2023-01-11T14:35:39.621Z,6.00
2023-01-11T14:38:48.087Z,5.15
2023-01-11T14:42:32.319Z,4.38
2023-01-11T14:45:52.244Z,6.00
2023-01-11T14:49:05.221Z,6.53
2023-01-11T14:52:34.531Z,8.80
2023-01-11T14:55:47.860Z,6.40
2023-01-11T14:59:06.015Z,7.00
2023-01-11T15:02:11.190Z,5.45
2023-01-11T15:05:31.698Z,6.77
2023-01-11T15:08:44.619Z,8.47
2023-01-11T15:11:47.121Z,6.57
2023-01-11T15:15:02.955Z,6.82
2023-01-11T15:18:18.023Z,6.32
2023-01-11T15:21:26.619Z,8.50
2023-01-11T15:24:32.513Z,7.83
2023-01-11T15:27:37.947Z,8.10
2023-01-11T15:30:40.629Z,6.88
2023-01-11T15:33:48.277Z,7.38
2023-01-11T15:37:03.970Z,9.33
2023-01-11T15:40:17.094Z,11.07
2023-01-11T15:43:31.755Z,9.25
2023-01-11T15:47:05.589Z,7.05
2023-01-11T15:50:29.792Z,7.90
2023-01-11T15:53:44.546Z,8.33
2023-01-11T15:57:03.390Z,7.23
2023-01-11T16:00:50.919Z,8.95
2023-01-11T16:04:19.037Z,11.00
2023-01-11T16:07:38.724Z,9.68
2023-01-11T16:11:11.056Z,9.53
2023-01-11T16:14:40.697Z,10.20
2023-01-11T16:17:47.061Z,10.82
2023-01-11T16:21:12.868Z,14.07
2023-01-11T16:24:21.107Z,16.08
2023-01-11T16:27:31.988Z,12.50
2023-01-11T16:30:34.830Z,16.40
2023-01-11T16:33:37.359Z,20.77
2023-01-11T16:36:41.663Z,19.13
2023-01-11T16:39:44.315Z,25.17
2023-01-11T16:42:49.892Z,24.47
2023-01-11T16:45:56.957Z,26.43
2023-01-11T16:49:09.732Z,22.35
2023-01-11T16:52:37.640Z,32.13
2023-01-11T16:55:42.595Z,34.83
2023-01-11T16:59:04.817Z,41.00
2023-01-11T17:02:28.342Z,35.23
2023-01-11T17:05:31.283Z,35.40
2023-01-11T17:08:36.646Z,41.50
2023-01-11T17:11:46.744Z,43.38
2023-01-11T17:15:18.346Z,51.33
2023-01-11T17:18:21.210Z,49.58
2023-01-11T17:21:26.737Z,45.42
2023-01-11T17:24:31.443Z,40.63
2023-01-11T17:27:45.054Z,40.77
2023-01-11T17:30:51.244Z,35.20
2023-01-11T17:34:02.303Z,41.50
2023-01-11T17:37:10.825Z,34.63
2023-01-11T17:40:22.597Z,40.30
2023-01-11T17:43:46.381Z,42.50
2023-01-11T17:46:49.074Z,41.20
2023-01-11T17:49:54.341Z,47.58
2023-01-11T17:53:04.911Z,39.38
2023-01-11T17:56:37.624Z,46.93
2023-01-11T17:59:40.390Z,41.88
2023-01-11T18:02:42.918Z,48.88
2023-01-11T18:05:45.571Z,52.35
2023-01-11T18:08:54.315Z,45.50
2023-01-11T18:12:18.341Z,50.40
2023-01-11T18:15:25.179Z,50.47
2023-01-11T18:18:44.044Z,41.63
2023-01-11T18:21:54.179Z,49.90
2023-01-11T18:24:59.111Z,47.03
2023-01-11T18:28:35.554Z,43.60
2023-01-11T18:31:38.332Z,41.70
2023-01-11T18:34:41.724Z,50.30
2023-01-11T18:37:46.882Z,40.43
2023-01-11T18:40:52.904Z,38.08
2023-01-11T18:43:55.794Z,41.75
2023-01-11T18:46:58.519Z,47.45
2023-01-11T18:50:00.925Z,42.03
2023-01-11T18:53:03.452Z,41.42
2023-01-11T18:56:06.165Z,47.70
2023-01-11T18:59:08.723Z,49.88
2023-01-11T19:02:24.991Z,60.30
2023-01-11T19:05:27.484Z,62.17
2023-01-11T19:08:30.766Z,65.03
2023-01-11T19:11:34.398Z,74.13
2023-01-11T19:14:37.182Z,70.85
2023-01-11T19:17:40.175Z,78.20
2023-01-11T19:20:43.482Z,60.53
2023-01-11T19:23:45.885Z,51.40
2023-01-11T19:26:48.788Z,53.23
2023-01-11T19:29:52.860Z,57.90
2023-01-11T19:32:55.633Z,60.97
2023-01-11T19:35:58.506Z,61.63
2023-01-11T19:39:01.002Z,39.67
2023-01-11T19:42:03.793Z,48.53
2023-01-11T19:45:07.181Z,47.13
2023-01-11T19:48:09.652Z,45.50
2023-01-11T19:51:12.908Z,51.20
2023-01-11T19:54:16.910Z,50.85
2023-01-11T19:57:20.669Z,48.97
2023-01-11T20:00:23.527Z,39.10
2023-01-11T20:03:26.102Z,42.63
2023-01-11T20:06:28.862Z,43.72
2023-01-11T20:09:31.832Z,41.30
2023-01-11T20:12:34.303Z,41.73
2023-01-11T20:15:38.388Z,39.60
2023-01-11T20:18:42.489Z,42.80
2023-01-11T20:21:45.192Z,52.53
2023-01-11T20:24:47.885Z,66.60
2023-01-11T20:27:50.647Z,64.60
2023-01-11T20:30:54.133Z,65.85
2023-01-11T20:34:00.409Z,66.45
2023-01-11T20:37:02.839Z,64.97
2023-01-11T20:40:07.104Z,60.78
2023-01-11T20:43:11.423Z,60.45
2023-01-11T20:46:13.920Z,58.60
2023-01-11T20:49:18.629Z,56.97
2023-01-11T20:52:21.325Z,54.42
2023-01-11T20:55:24.144Z,51.60
2023-01-11T20:58:26.931Z,49.87
2023-01-11T21:01:30.528Z,55.03
2023-01-11T21:04:33.140Z,55.72
2023-01-11T21:07:35.628Z,44.55
2023-01-11T21:10:38.199Z,58.63
2023-01-11T21:13:41.341Z,56.22
2023-01-11T21:16:44.331Z,58.53
2023-01-11T21:19:47.426Z,57.70
2023-01-11T21:22:49.904Z,55.60
2023-01-11T21:25:52.663Z,59.58
2023-01-11T21:29:00.455Z,55.35
2023-01-11T21:32:02.889Z,51.28
2023-01-11T21:35:05.739Z,47.50
2023-01-11T21:38:08.125Z,55.10
2023-01-11T21:41:50.859Z,49.90
2023-01-11T21:44:53.267Z,51.80
2023-01-11T21:47:55.949Z,47.58
2023-01-11T21:50:58.887Z,36.13
2023-01-11T21:54:07.796Z,43.58
2023-01-11T21:57:10.346Z,31.67
2023-01-11T22:00:14.632Z,30.23
2023-01-11T22:03:18.210Z,30.77
2023-01-11T22:06:20.830Z,32.72
2023-01-11T22:09:25.900Z,32.63
2023-01-11T22:12:28.342Z,31.58
2023-01-11T22:15:30.761Z,34.63
2023-01-11T22:18:35.060Z,30.55
2023-01-11T22:21:37.859Z,34.63
2023-01-11T22:24:40.346Z,37.03
2023-01-11T22:27:42.821Z,34.90
2023-01-11T22:30:45.267Z,35.20
2023-01-11T22:33:47.975Z,34.30
2023-01-11T22:36:50.590Z,34.00
2023-01-11T22:39:53.352Z,33.83
2023-01-11T22:42:55.909Z,35.42
2023-01-11T22:45:59.940Z,32.43
2023-01-11T22:49:02.720Z,34.42
2023-01-11T22:52:06.726Z,35.15
2023-01-11T22:55:10.147Z,37.40
2023-01-11T22:58:12.866Z,32.50
2023-01-11T23:01:16.587Z,37.80
2023-01-11T23:04:19.038Z,34.50
2023-01-11T23:07:22.890Z,31.80
2023-01-11T23:10:26.303Z,29.75
2023-01-11T23:13:47.247Z,35.40
2023-01-11T23:16:50.650Z,30.70
2023-01-11T23:19:53.364Z,37.45
2023-01-11T23:22:55.771Z,36.47
2023-01-11T23:25:58.518Z,36.50
2023-01-11T23:29:01.117Z,37.42
2023-01-11T23:32:03.855Z,36.70
2023-01-11T23:35:09.071Z,32.30
2023-01-11T23:38:11.552Z,28.93
2023-01-11T23:41:35.282Z,38.65
2023-01-11T23:44:37.782Z,44.38
2023-01-11T23:47:40.258Z,39.67
2023-01-11T23:50:42.955Z,31.25
2023-01-11T23:53:45.449Z,33.22
2023-01-11T23:56:48.222Z,34.45
2023-01-11T23:59:51.639Z,37.77
